Santa Mae Laura — CUQJ — position and weather

sailwx.info

Track history (hours):
 
Tides and Currents Weather Stations Pressure Air Temp Water Temp Dewpoint Dewpoint Depression Visibility Wind Speed Wind Dir Waves Ship Positions

Santa Mae Laura

Last reported at 2017-Jun-19 06:23 UTC. Time now 2017-Jul-26 08:47 UTC.
Position N 42°18' W 009°18'.
Warning: this ship's position is 37 days out of date.

Length 24 m.

Type: Fishing. MMSI: 263432000.

Date/timePositionNaut miles runAvg speedWind from/ knotsBaromVisibWave heightAir tempDewpointWater temp
2017-Jun-19 06:23N 42°18' W 009°18'2 3.9
2017-Jun-19 06:00N 42°20' W 009°18'2 4.0
2017-Jun-19 05:30N 42°22' W 009°18'2 4.0
2017-Jun-19 04:59N 42°24' W 009°18'2 4.4
2017-Jun-19 04:30N 42°26' W 009°19'24 2.8
2017-Jun-18 20:05N 42°47' W 009°03'1 7.2
2017-Jun-18 19:57N 42°46' W 009°03'4 0.2
2017-Jun-18 00:07N 42°42' W 009°05'31 6.4
2017-Jun-17 19:17N 42°11' W 009°11'2 6.2
2017-Jun-17 18:57N 42°09' W 009°12'9 6.1
2017-Jun-17 17:30N 42°01' W 009°15'5 4.1
2017-Jun-17 16:14N 41°56' W 009°16'2 8.0
2017-Jun-17 15:57N 41°58' W 009°16'4 9.5
2017-Jun-17 15:30N 42°02' W 009°17'5 9.8
2017-Jun-17 15:00N 42°07' W 009°18'5 9.7
2017-Jun-17 14:30N 42°12' W 009°18'  
2017-Jun-15 06:18N 42°40' W 009°30'2 4.0
2017-Jun-15 05:54N 42°42' W 009°30'5 2.3
2017-Jun-15 03:33N 42°47' W 009°31'0 0.8
2017-Jun-15 03:29N 42°47' W 009°32'1 0.4
2017-Jun-15 01:59N 42°46' W 009°31'0 1.0
2017-Jun-15 01:29N 42°47' W 009°31'1 2.8
2017-Jun-15 01:00N 42°45' W 009°31'1 0.4
2017-Jun-14 22:53N 42°46' W 009°31'1 0.7
2017-Jun-14 21:02N 42°45' W 009°31'0 2.4
2017-Jun-14 21:01N 42°45' W 009°31'  
Track history (hours):
 
Tides and Currents Weather Stations Pressure Air Temp Water Temp Dewpoint Dewpoint Depression Visibility Wind Speed Wind Dir Waves Ship Positions

Santa Mae Laura

Last reported at 2017-Jun-19 06:23 UTC. Time now 2017-Jul-26 08:47 UTC.
Position N 42°18' W 009°18'.
Warning: this ship's position is 37 days out of date.

Length 24 m.

Type: Fishing. MMSI: 263432000.

Date/timePositionNaut miles runAvg speedWind from/ knotsBaromVisibWave heightAir tempDewpointWater temp
2017-Jun-19 06:23N 42°18' W 009°18'2 3.9
2017-Jun-19 06:00N 42°20' W 009°18'2 4.0
2017-Jun-19 05:30N 42°22' W 009°18'2 4.0
2017-Jun-19 04:59N 42°24' W 009°18'2 4.4
2017-Jun-19 04:30N 42°26' W 009°19'24 2.8
2017-Jun-18 20:05N 42°47' W 009°03'1 7.2
2017-Jun-18 19:57N 42°46' W 009°03'4 0.2
2017-Jun-18 00:07N 42°42' W 009°05'31 6.4
2017-Jun-17 19:17N 42°11' W 009°11'2 6.2
2017-Jun-17 18:57N 42°09' W 009°12'9 6.1
2017-Jun-17 17:30N 42°01' W 009°15'5 4.1
2017-Jun-17 16:14N 41°56' W 009°16'2 8.0
2017-Jun-17 15:57N 41°58' W 009°16'4 9.5
2017-Jun-17 15:30N 42°02' W 009°17'5 9.8
2017-Jun-17 15:00N 42°07' W 009°18'5 9.7
2017-Jun-17 14:30N 42°12' W 009°18'  
2017-Jun-15 06:18N 42°40' W 009°30'2 4.0
2017-Jun-15 05:54N 42°42' W 009°30'5 2.3
2017-Jun-15 03:33N 42°47' W 009°31'0 0.8
2017-Jun-15 03:29N 42°47' W 009°32'1 0.4
2017-Jun-15 01:59N 42°46' W 009°31'0 1.0
2017-Jun-15 01:29N 42°47' W 009°31'1 2.8
2017-Jun-15 01:00N 42°45' W 009°31'1 0.4
2017-Jun-14 22:53N 42°46' W 009°31'1 0.7
2017-Jun-14 21:02N 42°45' W 009°31'0 2.4
2017-Jun-14 21:01N 42°45' W 009°31'  

Dump ship's entire track history